»·PEaware :: FDX1885 KOAK-KSEA

FDX1885 :: KOAK-KSEA

FLIGHT INFORMATION

Flight Status: Arrived
Operator:
Federal Express
More flights by this operator :: More flights under this callsign
Pilot: Andrew C. (28419)
Aircraft: AIRBUS A300B4-600
(A306)
More flights by this aircraft type
Origin: KOAK Metro Oakland Intl
United States
Destination: KSEA Seattle-Tacoma Intl
United States
More flights between these airports :: More routes between these airports
Route: OAK5 OAK DEDHD RBL LMT HAWKZ7
File this flight plan on PilotEdge
Remarks: RMK / SIMBRIEF
Altitude:
(Current/Filed)
34,000ft
Speed:
(Current/Filed)
449kts
Departed: 02-Feb-21 09:00 PM
Arrived: 02-Feb-21 10:28 PM
Distance/Time
Traveled:
584nm/1:28
Distance/Time
To Go:
Arrived

Flight Plot

Page will automatically refresh every two minutes.

Flight plan parsing failed; only flown route is shown


Map Options




Map Legend


Flown Route
Filed Route
Departure Airport
Arrival Airport
Navaid (VOR, NDB)
Fix

Horizontal Profiles

Position Reports

Time Latitude Longitude Heading Altitude Ground
Speed
02-Feb-21 20:33 37.716260 -122.219124 139 20ft 0kts
02-Feb-21 20:33 37.716260 -122.219124 139 20ft 0kts
02-Feb-21 20:34 37.716260 -122.219124 139 20ft 0kts
02-Feb-21 20:35 37.716260 -122.219124 139 20ft 0kts
02-Feb-21 20:36 37.716260 -122.219124 139 20ft 0kts
02-Feb-21 20:37 37.716260 -122.219124 139 20ft 0kts
02-Feb-21 20:38 37.716260 -122.219124 139 20ft 0kts
02-Feb-21 20:39 37.716260 -122.219124 139 20ft 0kts
02-Feb-21 20:40 37.716260 -122.219124 139 20ft 0kts
02-Feb-21 20:41 37.716260 -122.219124 139 20ft 0kts
02-Feb-21 20:42 37.716260 -122.219124 139 20ft 0kts
02-Feb-21 20:43 37.716260 -122.219124 139 20ft 0kts
02-Feb-21 20:44 37.716260 -122.219125 139 20ft 0kts
02-Feb-21 20:45 37.716284 -122.219151 139 20ft 2kts
02-Feb-21 20:46 37.716808 -122.219487 224 20ft 1kts
02-Feb-21 20:47 37.716838 -122.219448 228 20ft 0kts
02-Feb-21 20:48 37.716838 -122.219448 228 20ft 0kts
02-Feb-21 20:49 37.716838 -122.219448 228 20ft 0kts
02-Feb-21 20:50 37.716838 -122.219448 228 20ft 0kts
02-Feb-21 20:51 37.716838 -122.219448 228 20ft 0kts
02-Feb-21 20:52 37.715095 -122.219893 164 19ft 13kts
02-Feb-21 20:53 37.711872 -122.223367 220 19ft 16kts
02-Feb-21 20:54 37.708540 -122.221108 129 19ft 17kts
02-Feb-21 20:55 37.705229 -122.216121 130 19ft 21kts
02-Feb-21 20:56 37.702850 -122.213595 161 20ft 0kts
02-Feb-21 20:57 37.702850 -122.213595 161 20ft 0kts
02-Feb-21 20:58 37.702230 -122.215357 309 19ft 13kts
02-Feb-21 20:59 37.724838 -122.248906 309 980ft 186kts
02-Feb-21 21:00 37.765676 -122.308588 310 2993ft 247kts
02-Feb-21 21:01 37.814562 -122.374666 326 6041ft 272kts
02-Feb-21 21:02 37.889412 -122.357336 23 9249ft 301kts
02-Feb-21 21:03 37.972393 -122.310995 20 11118ft 368kts
02-Feb-21 21:04 38.075225 -122.255204 20 13417ft 421kts
02-Feb-21 21:05 38.185938 -122.195195 18 16290ft 447kts
02-Feb-21 21:06 38.303621 -122.131327 18 19003ft 471kts
02-Feb-21 21:07 38.429732 -122.114771 345 21084ft 462kts
02-Feb-21 21:08 38.560709 -122.126606 348 22745ft 481kts
02-Feb-21 21:09 38.695898 -122.136299 348 23973ft 490kts
02-Feb-21 21:10 38.832183 -122.145922 348 24576ft 494kts
02-Feb-21 21:11 38.970010 -122.155590 348 25103ft 493kts
02-Feb-21 21:12 39.113027 -122.165619 347 25651ft 493kts
02-Feb-21 21:13 39.250361 -122.175275 347 26109ft 495kts
02-Feb-21 21:14 39.388509 -122.185003 347 26578ft 499kts
02-Feb-21 21:15 39.527252 -122.194790 347 27055ft 502kts
02-Feb-21 21:16 39.667418 -122.204706 346 27546ft 506kts
02-Feb-21 21:17 39.808676 -122.214731 346 28050ft 511kts
02-Feb-21 21:18 39.950872 -122.224851 346 28565ft 516kts
02-Feb-21 21:19 40.093967 -122.234385 358 29199ft 531kts
02-Feb-21 21:20 40.239990 -122.200964 1 30118ft 535kts
02-Feb-21 21:21 40.385135 -122.166255 1 31559ft 528kts
02-Feb-21 21:22 40.528026 -122.131873 2 33478ft 520kts
02-Feb-21 21:23 40.670354 -122.097553 2 34145ft 521kts
02-Feb-21 21:24 40.812256 -122.063178 2 34099ft 517kts
02-Feb-21 21:25 40.953652 -122.028820 2 34104ft 514kts
02-Feb-21 21:26 41.093780 -121.994640 2 34104ft 514kts
02-Feb-21 21:27 41.234691 -121.960056 2 34104ft 515kts
02-Feb-21 21:28 41.376179 -121.925014 3 34083ft 511kts
02-Feb-21 21:29 41.516909 -121.889955 3 34055ft 509kts
02-Feb-21 21:30 41.655789 -121.855169 3 34058ft 507kts
02-Feb-21 21:31 41.794074 -121.820362 3 34058ft 505kts
02-Feb-21 21:32 41.931824 -121.785535 3 34060ft 505kts
02-Feb-21 21:33 42.070334 -121.750351 3 34046ft 504kts
02-Feb-21 21:34 42.204380 -121.738107 342 34039ft 480kts
02-Feb-21 21:35 42.336789 -121.768188 342 34037ft 483kts
02-Feb-21 21:36 42.469346 -121.798445 342 34039ft 483kts
02-Feb-21 21:37 42.601627 -121.828678 342 34036ft 482kts
02-Feb-21 21:38 42.734238 -121.859080 342 34022ft 482kts
02-Feb-21 21:39 42.867414 -121.889709 342 34022ft 481kts
02-Feb-21 21:40 43.000082 -121.920347 342 34021ft 480kts
02-Feb-21 21:41 43.132137 -121.950961 343 34013ft 479kts
02-Feb-21 21:42 43.263719 -121.981581 343 34004ft 477kts
02-Feb-21 21:43 43.394531 -122.012299 343 34009ft 472kts
02-Feb-21 21:44 43.524026 -122.043192 343 34013ft 472kts
02-Feb-21 21:45 43.653915 -122.074140 343 34017ft 472kts
02-Feb-21 21:46 43.783296 -122.104999 343 34007ft 473kts
02-Feb-21 21:47 43.913161 -122.136027 343 33998ft 474kts
02-Feb-21 21:48 44.044088 -122.167387 343 34000ft 474kts
02-Feb-21 21:49 44.175331 -122.198946 344 33997ft 473kts
02-Feb-21 21:50 44.305033 -122.230232 344 33996ft 472kts
02-Feb-21 21:51 44.434547 -122.261638 344 33959ft 470kts
02-Feb-21 21:52 44.565210 -122.293438 344 33934ft 469kts
02-Feb-21 21:53 44.695031 -122.325210 344 33932ft 468kts
02-Feb-21 21:54 44.823688 -122.356824 344 33933ft 468kts
02-Feb-21 21:55 44.951856 -122.388486 345 33933ft 467kts
02-Feb-21 21:56 45.078177 -122.419803 345 33938ft 456kts
02-Feb-21 21:57 45.202589 -122.450814 345 33805ft 442kts
02-Feb-21 21:59 45.318680 -122.480281 345 31847ft 419kts
02-Feb-21 22:00 45.432789 -122.509607 345 29642ft 416kts
02-Feb-21 22:01 45.546280 -122.538622 344 27596ft 414kts
02-Feb-21 22:02 45.663977 -122.568865 345 25443ft 455kts
02-Feb-21 22:03 45.792000 -122.601324 345 23695ft 455kts
02-Feb-21 22:04 45.920735 -122.633291 345 22656ft 453kts
02-Feb-21 22:05 46.046227 -122.664483 345 22046ft 449kts
02-Feb-21 22:06 46.170235 -122.692147 347 21407ft 446kts
02-Feb-21 22:07 46.293778 -122.716595 347 20908ft 444kts
02-Feb-21 22:08 46.412741 -122.727001 354 20378ft 403kts
02-Feb-21 22:09 46.521635 -122.730300 353 19871ft 385kts
02-Feb-21 22:10 46.631922 -122.734132 354 18908ft 394kts
02-Feb-21 22:11 46.737786 -122.737663 354 17207ft 372kts
02-Feb-21 22:12 46.830006 -122.686172 37 16046ft 366kts
02-Feb-21 22:13 46.911529 -122.592265 36 14796ft 348kts
02-Feb-21 22:13 46.983771 -122.544374 14 13827ft 326kts
02-Feb-21 22:15 47.085869 -122.500316 5 12380ft 317kts
02-Feb-21 22:16 47.164977 -122.485076 3 10906ft 311kts
02-Feb-21 22:16 47.240436 -122.472387 3 9644ft 307kts
02-Feb-21 22:17 47.324194 -122.459506 3 8610ft 292kts
02-Feb-21 22:18 47.402318 -122.453540 356 7750ft 275kts
02-Feb-21 22:19 47.479789 -122.452987 0 6003ft 282kts
02-Feb-21 22:20 47.554624 -122.449808 1 4313ft 264kts
02-Feb-21 22:21 47.612412 -122.412450 73 3286ft 196kts
02-Feb-21 22:22 47.603296 -122.346561 132 3054ft 165kts
02-Feb-21 22:23 47.566654 -122.308820 162 2667ft 156kts
02-Feb-21 22:24 47.529803 -122.307800 179 1766ft 138kts
02-Feb-21 22:25 47.490473 -122.307747 177 1099ft 148kts
02-Feb-21 22:26 47.451470 -122.307813 183 482ft 95kts
02-Feb-21 22:27 47.446259 -122.306337 13 482ft 7kts
02-Feb-21 22:28 47.451245 -122.305175 9 482ft 23kts
02-Feb-21 22:29 47.457530 -122.304975 2 482ft 21kts
02-Feb-21 22:30 47.461781 -122.302636 91 482ft 17kts
02-Feb-21 22:31 47.460922 -122.300831 179 482ft 0kts
02-Feb-21 22:32 47.460922 -122.300831 179 482ft 0kts

Navigation Log

Ident Type
Flight plan parsing failed, navigation log unavailable